createdAt,value
2022-12-04T00:00:24.831Z,4.63
2022-12-04T00:02:51.352Z,4.49
2022-12-04T00:05:18.005Z,5.08
2022-12-04T00:07:45.375Z,5.05
2022-12-04T00:10:12.166Z,4.63
2022-12-04T00:12:38.833Z,4.91
2022-12-04T00:17:52.716Z,4.21
2022-12-04T00:20:19.947Z,4.71
2022-12-04T00:22:46.527Z,4.48
2022-12-04T00:25:13.051Z,4.40
2022-12-04T00:28:03.801Z,4.93
2022-12-04T00:30:30.453Z,4.56
2022-12-04T00:32:56.966Z,3.99
2022-12-04T00:35:23.563Z,4.70
2022-12-04T00:37:50.098Z,4.88
2022-12-04T00:40:36.833Z,5.15
2022-12-04T00:43:23.608Z,5.00
2022-12-04T00:45:50.440Z,4.69
2022-12-04T00:48:17.117Z,5.11
2022-12-04T00:50:43.689Z,4.67
2022-12-04T00:53:11.146Z,5.21
2022-12-04T00:55:42.311Z,5.31
2022-12-04T00:58:14.629Z,4.87
2022-12-04T01:00:43.195Z,5.20
2022-12-04T01:03:10.378Z,4.81
2022-12-04T01:05:42.070Z,4.49
2022-12-04T01:08:20.866Z,4.40
2022-12-04T01:11:22.447Z,4.64
2022-12-04T01:14:10.713Z,4.66
2022-12-04T01:16:39.072Z,4.20
2022-12-04T01:19:09.027Z,4.58
2022-12-04T01:21:36.878Z,4.29
2022-12-04T01:24:04.318Z,4.30
2022-12-04T01:26:31.788Z,4.50
2022-12-04T01:29:05.768Z,4.16
2022-12-04T01:31:32.444Z,4.68
2022-12-04T01:33:59.076Z,4.66
2022-12-04T01:36:28.094Z,4.80
2022-12-04T01:38:57.031Z,4.94
2022-12-04T01:41:26.922Z,4.06
2022-12-04T02:27:07.001Z,4.12
2022-12-04T02:32:22.142Z,3.73
2022-12-04T02:35:07.213Z,4.21
2022-12-04T02:37:38.402Z,4.57
2022-12-04T02:40:07.966Z,4.45
2022-12-04T02:42:38.979Z,3.96
2022-12-04T02:45:09.698Z,3.57
2022-12-04T02:47:39.932Z,4.04
2022-12-04T02:50:13.991Z,4.17
2022-12-04T02:52:47.366Z,4.02
2022-12-04T02:55:21.772Z,3.50
2022-12-04T02:57:56.030Z,3.76
2022-12-04T03:00:22.712Z,3.87
2022-12-04T03:03:48.921Z,3.81
2022-12-04T03:07:09.646Z,3.82
2022-12-04T03:09:42.921Z,4.30
2022-12-04T03:12:19.447Z,4.32
2022-12-04T03:15:00.275Z,4.27
2022-12-04T03:17:36.117Z,4.01
2022-12-04T03:20:08.683Z,3.83
2022-12-04T03:25:32.007Z,3.85
2022-12-04T03:28:02.504Z,4.05
2022-12-04T03:30:36.816Z,3.78
2022-12-04T03:33:13.154Z,4.08
2022-12-04T03:35:51.553Z,4.22
2022-12-04T03:38:33.786Z,3.72
2022-12-04T03:41:30.162Z,4.36
2022-12-04T03:44:08.891Z,3.75
2022-12-04T03:46:45.420Z,3.91
2022-12-04T03:49:19.419Z,4.14
2022-12-04T03:52:15.395Z,3.93
2022-12-04T03:54:51.914Z,4.63
2022-12-04T03:57:24.016Z,3.57
2022-12-04T03:59:59.089Z,4.00
2022-12-04T04:02:37.584Z,3.29
2022-12-04T04:05:08.784Z,2.79
2022-12-04T04:07:46.435Z,3.09
2022-12-04T04:10:17.065Z,3.04
2022-12-04T04:13:13.355Z,2.79
2022-12-04T04:16:04.544Z,2.98
2022-12-04T04:18:51.417Z,2.84
2022-12-04T04:21:41.913Z,2.80
2022-12-04T04:24:18.909Z,3.03
2022-12-04T04:26:48.096Z,2.82
2022-12-04T04:29:15.082Z,3.08
2022-12-04T04:31:53.944Z,3.16
2022-12-04T04:34:40.397Z,3.54
2022-12-04T04:37:29.096Z,3.77
2022-12-04T04:40:19.062Z,2.78
2022-12-04T04:42:56.771Z,3.13
2022-12-04T04:45:45.573Z,3.00
2022-12-04T04:48:27.372Z,3.44
2022-12-04T04:50:55.076Z,3.73
2022-12-04T04:53:26.915Z,3.91
2022-12-04T04:55:53.842Z,3.55
2022-12-04T04:58:21.618Z,2.98
2022-12-04T05:01:01.700Z,3.31
2022-12-04T05:03:29.696Z,2.66
2022-12-04T05:05:56.761Z,3.07
2022-12-04T05:08:41.872Z,2.77
2022-12-04T05:11:13.269Z,2.87
2022-12-04T05:13:40.745Z,2.59
2022-12-04T05:16:11.797Z,2.88
2022-12-04T05:18:38.538Z,3.26
2022-12-04T05:21:10.320Z,2.82
2022-12-04T05:23:36.888Z,3.18
2022-12-04T05:26:05.138Z,3.27
2022-12-04T05:28:31.772Z,3.84
2022-12-04T05:31:02.813Z,3.91
2022-12-04T05:33:30.660Z,3.36
2022-12-04T05:36:06.079Z,3.49
2022-12-04T05:38:33.330Z,2.80
2022-12-04T05:41:01.488Z,3.05
2022-12-04T05:43:28.469Z,3.34
2022-12-04T05:45:55.033Z,3.46
2022-12-04T05:48:21.649Z,3.09
2022-12-04T05:50:48.198Z,3.25
2022-12-04T05:53:14.822Z,3.14
2022-12-04T05:55:41.367Z,3.08
2022-12-04T05:58:07.911Z,3.78
2022-12-04T06:00:34.464Z,3.84
2022-12-04T06:06:51.325Z,3.67
2022-12-04T06:09:17.894Z,3.52
2022-12-04T06:11:45.020Z,3.73
2022-12-04T06:14:14.909Z,3.79
2022-12-04T06:16:52.209Z,4.11
2022-12-04T06:19:20.572Z,3.40
2022-12-04T06:21:49.028Z,3.93
2022-12-04T06:24:22.960Z,3.91
2022-12-04T06:27:25.756Z,3.88
2022-12-04T06:29:37.198Z,4.04
2022-12-04T06:32:04.099Z,3.89
2022-12-04T06:34:30.820Z,4.28
2022-12-04T06:37:26.195Z,4.34
2022-12-04T06:39:53.100Z,4.77
2022-12-04T06:42:20.108Z,4.38
2022-12-04T06:44:49.862Z,4.09
2022-12-04T06:51:18.805Z,4.10
2022-12-04T06:53:45.874Z,4.26
2022-12-04T06:56:17.981Z,3.90
2022-12-04T06:58:45.634Z,4.19
2022-12-04T07:01:18.662Z,4.58
2022-12-04T07:03:51.045Z,4.16
2022-12-04T07:06:20.330Z,4.03
2022-12-04T07:08:49.819Z,3.62
2022-12-04T07:11:16.683Z,3.58
2022-12-04T07:13:43.674Z,3.96
2022-12-04T07:18:46.339Z,3.95
2022-12-04T07:21:21.518Z,3.57
2022-12-04T07:23:53.173Z,3.43
2022-12-04T07:26:21.156Z,3.55
2022-12-04T07:28:48.514Z,3.61
2022-12-04T07:31:17.850Z,3.61
2022-12-04T07:33:45.805Z,4.09
2022-12-04T07:36:15.550Z,3.81
2022-12-04T07:38:42.860Z,3.74
2022-12-04T07:41:11.849Z,3.65
2022-12-04T07:43:38.695Z,3.38
2022-12-04T07:46:26.207Z,3.58
2022-12-04T07:48:55.626Z,3.12
2022-12-04T07:51:24.550Z,3.42
2022-12-04T07:53:53.334Z,3.23
2022-12-04T07:56:20.381Z,3.13
2022-12-04T07:58:47.489Z,3.42
2022-12-04T08:01:24.070Z,3.49
2022-12-04T08:03:54.627Z,3.69
2022-12-04T08:06:23.007Z,4.16
2022-12-04T08:08:50.771Z,3.87
2022-12-04T08:11:21.166Z,3.75
2022-12-04T08:13:48.180Z,3.82
2022-12-04T08:16:15.725Z,3.95
2022-12-04T08:18:46.786Z,3.90
2022-12-04T08:21:16.961Z,3.70
2022-12-04T08:23:44.514Z,4.13
2022-12-04T08:26:12.728Z,4.03
2022-12-04T08:28:40.008Z,4.19
2022-12-04T08:31:11.030Z,3.72
2022-12-04T08:33:38.123Z,4.23
2022-12-04T08:36:09.826Z,4.27
2022-12-04T08:38:36.786Z,3.84
2022-12-04T08:41:05.618Z,4.54
2022-12-04T08:43:32.828Z,4.25
2022-12-04T08:46:01.724Z,4.89
2022-12-04T08:48:28.373Z,4.94
2022-12-04T08:50:55.710Z,5.26
2022-12-04T08:53:23.111Z,4.87
2022-12-04T08:55:50.098Z,4.87
2022-12-04T08:58:17.345Z,5.04
2022-12-04T09:00:44.038Z,4.87
2022-12-04T09:03:19.166Z,5.14
2022-12-04T09:05:46.653Z,5.17
2022-12-04T09:08:16.228Z,5.19
2022-12-04T09:10:44.551Z,5.16
2022-12-04T09:13:11.086Z,5.55
2022-12-04T09:15:40.832Z,5.88
2022-12-04T09:18:08.649Z,6.14
2022-12-04T09:20:35.812Z,5.44
2022-12-04T09:23:04.934Z,5.77
2022-12-04T09:25:35.291Z,5.78
2022-12-04T09:28:01.892Z,6.25
2022-12-04T09:30:28.523Z,5.89
2022-12-04T09:32:55.081Z,6.25
2022-12-04T09:35:21.632Z,6.52
2022-12-04T09:37:48.179Z,6.71
2022-12-04T09:40:37.109Z,6.47
2022-12-04T09:43:31.187Z,6.80
2022-12-04T09:46:04.180Z,6.76
2022-12-04T09:48:38.976Z,6.81
2022-12-04T09:51:08.214Z,6.49
2022-12-04T09:53:47.347Z,6.73
2022-12-04T09:56:17.318Z,7.30
2022-12-04T09:58:53.261Z,6.80
2022-12-04T10:01:40.812Z,6.27
2022-12-04T10:04:10.396Z,6.50
2022-12-04T10:06:47.732Z,6.51
2022-12-04T10:09:25.643Z,6.79
2022-12-04T10:12:03.560Z,6.37
2022-12-04T10:14:39.217Z,6.95
2022-12-04T10:17:39.644Z,6.96
2022-12-04T10:20:44.658Z,7.03
2022-12-04T10:23:32.637Z,7.35
2022-12-04T10:26:01.470Z,6.60
2022-12-04T10:28:36.800Z,6.84
2022-12-04T10:31:06.395Z,7.07
2022-12-04T10:33:43.987Z,7.34
2022-12-04T10:36:17.008Z,7.49
2022-12-04T10:38:55.723Z,7.20
2022-12-04T10:41:27.343Z,6.98
2022-12-04T10:43:54.201Z,7.40
2022-12-04T10:46:30.457Z,7.13
2022-12-04T10:49:09.507Z,7.77
2022-12-04T10:51:40.350Z,7.83
2022-12-04T10:56:51.028Z,8.35
2022-12-04T11:04:43.429Z,7.20
2022-12-04T11:10:18.219Z,7.50
2022-12-04T11:13:00.892Z,7.78
2022-12-04T11:15:31.602Z,7.74
2022-12-04T11:26:43.009Z,7.69
2022-12-04T11:32:08.239Z,7.15
2022-12-04T11:34:40.084Z,7.49
2022-12-04T11:37:18.724Z,7.16
2022-12-04T11:40:06.915Z,7.28
2022-12-04T11:42:36.989Z,8.04
2022-12-04T11:45:21.361Z,7.91
2022-12-04T11:48:19.539Z,7.78
2022-12-04T11:50:46.031Z,8.25
2022-12-04T11:56:39.396Z,7.63
2022-12-04T11:59:24.303Z,7.71
2022-12-04T12:02:11.191Z,7.61
2022-12-04T12:04:47.710Z,8.06
2022-12-04T12:07:38.396Z,7.81
2022-12-04T12:10:27.977Z,7.92
2022-12-04T12:13:15.890Z,7.79
2022-12-04T12:16:07.994Z,8.43
2022-12-04T12:19:16.691Z,8.61
2022-12-04T12:21:43.254Z,8.96
2022-12-04T12:24:19.571Z,9.03
2022-12-04T12:27:28.898Z,9.04
2022-12-04T12:38:50.551Z,8.09
2022-12-04T12:46:51.785Z,8.29
2022-12-04T12:52:06.487Z,8.54
2022-12-04T12:54:39.109Z,8.95
2022-12-04T12:57:36.779Z,8.61
2022-12-04T13:00:20.477Z,8.56
2022-12-04T13:03:01.733Z,9.03
2022-12-04T13:05:40.813Z,9.15
2022-12-04T13:08:22.805Z,9.35
2022-12-04T13:11:07.458Z,9.14
2022-12-04T13:13:41.147Z,8.97
2022-12-04T13:16:27.135Z,8.66
2022-12-04T13:24:28.749Z,8.71
2022-12-04T13:27:19.486Z,8.37
2022-12-04T13:30:01.791Z,8.31
2022-12-04T13:35:09.255Z,8.28
2022-12-04T13:38:22.794Z,8.44
2022-12-04T13:41:12.609Z,8.29
2022-12-04T13:43:42.368Z,7.67
2022-12-04T13:50:57.293Z,8.00
2022-12-04T13:53:32.553Z,8.09
2022-12-04T13:56:04.441Z,8.46
2022-12-04T14:01:38.573Z,8.13
2022-12-04T14:04:44.706Z,7.83
2022-12-04T14:07:51.561Z,7.87
2022-12-04T14:10:45.209Z,8.12
2022-12-04T14:16:06.588Z,8.23
2022-12-04T14:18:33.333Z,8.17
2022-12-04T14:21:05.353Z,7.88
2022-12-04T14:23:41.146Z,7.97
2022-12-04T14:27:03.675Z,8.12
2022-12-04T14:29:56.170Z,8.22
2022-12-04T14:32:27.133Z,8.11
2022-12-04T14:40:25.264Z,8.02
2022-12-04T14:46:06.298Z,8.13
2022-12-04T14:49:04.018Z,8.18
2022-12-04T14:54:46.344Z,8.87
2022-12-04T14:59:56.088Z,9.09
2022-12-04T15:05:30.366Z,8.84
2022-12-04T15:08:06.667Z,9.01
2022-12-04T15:13:27.384Z,8.64
2022-12-04T15:15:54.181Z,9.15
2022-12-04T15:21:00.395Z,8.68
2022-12-04T15:23:38.939Z,9.15
2022-12-04T15:26:22.181Z,9.14
2022-12-04T15:28:52.574Z,9.14
2022-12-04T15:31:28.028Z,9.12
2022-12-04T15:34:12.224Z,9.17
2022-12-04T15:36:46.723Z,8.85
2022-12-04T15:39:18.620Z,9.07
2022-12-04T15:41:45.555Z,9.11
2022-12-04T15:44:42.384Z,8.86
2022-12-04T15:49:44.163Z,9.12
2022-12-04T15:52:14.202Z,8.88
2022-12-04T15:55:17.015Z,9.06
2022-12-04T15:57:50.370Z,9.13
2022-12-04T16:00:33.033Z,7.95
2022-12-04T16:03:37.245Z,8.08
2022-12-04T16:06:25.600Z,7.69
2022-12-04T16:11:46.480Z,7.49
2022-12-04T16:14:12.995Z,7.48
2022-12-04T16:17:06.239Z,8.16
2022-12-04T16:19:39.439Z,8.35
2022-12-04T16:27:33.283Z,8.77
2022-12-04T16:32:55.491Z,7.86
2022-12-04T16:37:58.280Z,7.91
2022-12-04T16:40:24.870Z,7.80
2022-12-04T16:42:51.551Z,7.82
2022-12-04T16:45:24.183Z,7.95
2022-12-04T16:47:50.811Z,7.48
2022-12-04T16:50:17.492Z,8.29
2022-12-04T16:52:44.333Z,8.32
2022-12-04T16:55:33.329Z,8.12
2022-12-04T16:57:59.874Z,8.21
2022-12-04T17:00:26.546Z,8.04
2022-12-04T17:02:53.258Z,8.32
2022-12-04T17:07:56.154Z,8.16
2022-12-04T17:10:24.339Z,8.43
2022-12-04T17:12:55.558Z,8.22
2022-12-04T17:15:30.056Z,7.94
2022-12-04T17:23:34.926Z,8.27
2022-12-04T17:26:20.456Z,7.76
2022-12-04T17:28:50.412Z,7.82
2022-12-04T17:31:21.221Z,8.14
2022-12-04T17:33:51.409Z,7.46
2022-12-04T17:36:22.092Z,8.21
2022-12-04T17:38:53.237Z,8.39
2022-12-04T17:41:19.794Z,8.31
2022-12-04T17:43:46.958Z,8.00
2022-12-04T17:46:21.567Z,7.70
2022-12-04T17:48:49.041Z,8.21
2022-12-04T17:51:21.353Z,8.42
2022-12-04T17:53:51.385Z,8.21
2022-12-04T17:58:54.038Z,8.13
2022-12-04T18:01:24.126Z,8.41
2022-12-04T18:03:56.325Z,6.98
2022-12-04T18:06:25.587Z,7.23
2022-12-04T18:08:53.363Z,7.55
2022-12-04T18:11:22.410Z,7.83
2022-12-04T18:13:53.496Z,8.14
2022-12-04T18:19:02.120Z,8.17
2022-12-04T18:21:30.366Z,7.85
2022-12-04T18:23:59.729Z,7.93
2022-12-04T18:26:28.193Z,7.94
2022-12-04T18:28:55.645Z,8.01
2022-12-04T18:31:22.548Z,8.02
2022-12-04T18:33:50.053Z,7.98
2022-12-04T18:36:19.531Z,7.63
2022-12-04T18:38:47.176Z,7.92
2022-12-04T18:41:14.783Z,7.88
2022-12-04T18:43:43.581Z,7.95
2022-12-04T18:46:15.884Z,7.64
2022-12-04T18:48:44.416Z,7.42
2022-12-04T18:51:32.691Z,7.32
2022-12-04T18:54:05.807Z,7.64
2022-12-04T18:56:35.347Z,7.79
2022-12-04T18:59:08.491Z,7.87
2022-12-04T19:01:35.784Z,7.78
2022-12-04T19:04:05.230Z,7.71
2022-12-04T19:06:35.621Z,7.70
2022-12-04T19:09:06.008Z,7.69
2022-12-04T19:11:33.487Z,7.62
2022-12-04T19:14:01.761Z,7.78
2022-12-04T19:16:29.649Z,7.74
2022-12-04T19:18:57.493Z,7.81
2022-12-04T19:21:24.802Z,7.77
2022-12-04T19:24:01.002Z,7.52
2022-12-04T19:26:29.285Z,7.27
2022-12-04T19:28:56.541Z,7.30
2022-12-04T19:31:27.498Z,7.34
2022-12-04T19:33:58.462Z,7.46
2022-12-04T19:36:30.252Z,7.51
2022-12-04T19:38:57.914Z,7.28
2022-12-04T19:41:26.898Z,7.38
2022-12-04T19:43:56.966Z,7.30
2022-12-04T19:46:28.130Z,6.90
2022-12-04T19:48:58.254Z,7.05
2022-12-04T19:51:25.766Z,6.97
2022-12-04T19:53:54.926Z,7.27
2022-12-04T19:56:26.726Z,7.21
2022-12-04T19:58:56.277Z,7.03
2022-12-04T20:01:31.525Z,6.98
2022-12-04T20:04:05.441Z,7.26
2022-12-04T20:06:38.009Z,7.38
2022-12-04T20:09:08.108Z,7.19
2022-12-04T20:11:37.348Z,7.19
2022-12-04T20:14:05.250Z,7.24
2022-12-04T20:16:33.683Z,7.24
2022-12-04T20:19:02.001Z,7.23
2022-12-04T20:21:31.734Z,7.30
2022-12-04T20:24:02.068Z,6.94
2022-12-04T20:26:32.385Z,7.18
2022-12-04T20:29:00.865Z,7.11
2022-12-04T20:31:36.584Z,7.18
2022-12-04T20:34:05.935Z,7.42
2022-12-04T20:36:38.178Z,7.13
2022-12-04T20:39:08.031Z,7.31
2022-12-04T20:41:35.115Z,7.67
2022-12-04T20:44:04.837Z,7.46
2022-12-04T20:46:35.356Z,7.09
2022-12-04T20:49:06.295Z,7.28
2022-12-04T20:51:38.833Z,7.29
2022-12-04T20:54:08.056Z,7.50
2022-12-04T21:10:25.557Z,7.66
2022-12-04T21:13:16.555Z,7.58
2022-12-04T21:16:01.608Z,7.55
2022-12-04T21:18:29.473Z,7.70
2022-12-04T21:21:20.680Z,7.91
2022-12-04T21:23:47.256Z,7.96
2022-12-04T21:28:49.038Z,7.79
2022-12-04T21:43:18.314Z,7.52
2022-12-04T21:46:07.451Z,7.39
2022-12-04T21:48:51.741Z,7.09
2022-12-04T21:56:28.850Z,6.17
2022-12-04T21:58:55.889Z,6.28
2022-12-04T22:02:12.705Z,6.51
2022-12-04T22:05:10.812Z,6.45
2022-12-04T22:07:39.239Z,6.61
2022-12-04T22:24:54.015Z,7.02
2022-12-04T22:27:26.307Z,6.92
2022-12-04T22:29:55.796Z,6.52
2022-12-04T22:33:19.809Z,6.69
2022-12-04T22:36:35.211Z,6.52
2022-12-04T22:39:10.712Z,6.25
2022-12-04T22:44:14.182Z,6.38
2022-12-04T22:46:40.794Z,6.58
2022-12-04T22:57:13.600Z,6.57
2022-12-04T23:08:28.188Z,6.86
2022-12-04T23:11:04.771Z,6.72
2022-12-04T23:13:31.667Z,7.00
2022-12-04T23:15:58.285Z,6.96
2022-12-04T23:18:25.224Z,6.98
2022-12-04T23:21:22.883Z,6.99
2022-12-04T23:38:07.625Z,7.47
2022-12-04T23:40:34.198Z,7.15
2022-12-04T23:43:00.777Z,7.26
2022-12-04T23:45:27.336Z,7.22
2022-12-04T23:47:55.791Z,7.24
2022-12-04T23:50:24.669Z,7.32
2022-12-04T23:52:51.452Z,6.85
2022-12-04T23:55:34.705Z,6.96
2022-12-04T23:58:03.427Z,6.97
